Time;durP1;ratioP1;P1;durP2;ratioP2;P2;SDS_P1;SDS_P2;PMS_P1;PMS_P2;Temp;Humidity;BMP_temperature;BMP_pressure;BME280_temperature;BME280_humidity;BME280_pressure;Samples;Min_cycle;Max_cycle;Signal;HPM_P1;HPM_P2
2023/10/21 00:01:31;;;;;;;1.55;0.95;;;15.90;99.90;;;;;;4992076;28;20037;-42
2023/10/21 00:03:57;;;;;;;1.63;0.90;;;15.90;99.90;;;;;;4992049;28;20534;-41
2023/10/21 00:06:22;;;;;;;2.50;0.85;;;15.90;99.90;;;;;;4991868;28;20412;-40
2023/10/21 00:08:48;;;;;;;2.53;0.90;;;15.90;99.90;;;;;;4992034;28;20026;-39
2023/10/21 00:11:13;;;;;;;2.13;0.90;;;15.90;99.90;;;;;;4991983;28;20023;-39
2023/10/21 00:13:39;;;;;;;1.85;1.00;;;15.90;99.90;;;;;;4991740;28;20105;-40
2023/10/21 00:16:05;;;;;;;1.10;0.85;;;15.90;99.90;;;;;;4991645;28;20469;-40
2023/10/21 00:18:31;;;;;;;1.27;0.73;;;15.80;99.90;;;;;;4991947;28;20101;-39
2023/10/21 00:20:56;;;;;;;2.22;0.80;;;15.80;99.90;;;;;;4992183;28;20052;-40
2023/10/21 00:23:22;;;;;;;3.03;0.80;;;15.90;99.90;;;;;;4992001;28;20476;-38
2023/10/21 00:25:48;;;;;;;1.13;0.80;;;15.80;99.90;;;;;;4974266;28;20030;-39
2023/10/21 00:28:14;;;;;;;1.63;0.73;;;15.80;99.90;;;;;;4991706;28;20070;-40
2023/10/21 00:30:41;;;;;;;2.03;0.70;;;15.90;99.90;;;;;;4991795;28;20455;-40
2023/10/21 00:33:06;;;;;;;1.70;0.80;;;15.80;99.90;;;;;;4991748;28;20054;-40
2023/10/21 00:35:32;;;;;;;1.25;0.75;;;15.80;99.90;;;;;;4991639;28;20526;-39
2023/10/21 00:37:58;;;;;;;2.20;0.75;;;15.80;99.90;;;;;;4991776;28;20057;-40
2023/10/21 00:40:23;;;;;;;1.77;0.70;;;15.80;99.90;;;;;;4991762;28;20019;-40
2023/10/21 00:42:49;;;;;;;2.05;0.68;;;15.90;99.90;;;;;;4991482;28;20026;-40
2023/10/21 00:45:15;;;;;;;1.00;0.70;;;15.80;99.90;;;;;;4991574;28;20062;-39
2023/10/21 00:47:41;;;;;;;0.95;0.45;;;15.80;99.90;;;;;;4991679;28;20034;-40
2023/10/21 00:50:07;;;;;;;0.80;0.50;;;15.80;99.90;;;;;;4991724;28;20034;-40
2023/10/21 00:52:42;;;;;;;0.82;0.70;;;15.80;99.90;;;;;;4991550;28;20080;-38
2023/10/21 00:55:10;;;;;;;1.67;0.77;;;15.90;99.90;;;;;;4991520;28;20113;-40
2023/10/21 00:57:36;;;;;;;2.50;0.68;;;15.80;99.90;;;;;;4991953;28;20080;-42
2023/10/21 01:00:10;;;;;;;0.80;0.60;;;15.80;99.90;;;;;;4991593;28;20027;-40
2023/10/21 01:02:37;;;;;;;5.15;0.47;;;15.90;99.90;;;;;;4991567;28;20034;-40
2023/10/21 01:05:03;;;;;;;1.63;0.63;;;15.80;99.90;;;;;;4991502;28;20085;-40
2023/10/21 01:07:33;;;;;;;1.23;0.60;;;15.80;99.90;;;;;;4991514;28;20035;-42
2023/10/21 01:09:59;;;;;;;0.88;0.50;;;15.80;99.90;;;;;;4991394;28;20054;-40
2023/10/21 01:12:24;;;;;;;1.75;0.52;;;15.80;99.90;;;;;;4991398;28;20326;-40
2023/10/21 01:14:52;;;;;;;0.88;0.40;;;15.80;99.90;;;;;;4991409;28;20034;-40
2023/10/21 01:17:18;;;;;;;3.00;0.57;;;15.80;99.90;;;;;;4991386;28;20027;-40
2023/10/21 01:19:43;;;;;;;0.75;0.38;;;15.80;99.90;;;;;;4991517;28;20105;-40
2023/10/21 01:22:09;;;;;;;1.45;0.50;;;15.80;99.90;;;;;;4991330;28;20468;-40
2023/10/21 01:24:35;;;;;;;1.75;0.52;;;15.80;99.90;;;;;;4991287;28;20026;-41
2023/10/21 01:27:00;;;;;;;1.23;0.35;;;15.80;99.90;;;;;;4994428;28;20500;-37
2023/10/21 01:29:26;;;;;;;2.88;0.55;;;15.80;99.90;;;;;;4994835;28;20034;-38
2023/10/21 01:31:52;;;;;;;1.05;0.50;;;15.90;99.90;;;;;;4994788;28;20105;-38
2023/10/21 01:34:18;;;;;;;1.08;0.40;;;15.80;99.90;;;;;;4994671;28;20029;-39
2023/10/21 01:36:43;;;;;;;0.85;0.40;;;15.80;99.90;;;;;;4994426;28;20030;-37
2023/10/21 01:39:10;;;;;;;2.45;0.38;;;15.80;99.90;;;;;;4994609;28;20102;-37
2023/10/21 01:41:37;;;;;;;1.55;0.30;;;15.80;99.90;;;;;;4994599;28;20015;-37
2023/10/21 01:44:03;;;;;;;1.45;0.50;;;15.80;99.90;;;;;;4994981;28;20022;-35
2023/10/21 01:46:30;;;;;;;4.28;0.50;;;15.80;99.90;;;;;;4994292;28;20100;-40
2023/10/21 01:48:58;;;;;;;3.88;0.63;;;15.80;99.90;;;;;;4994508;28;20061;-35
2023/10/21 01:51:23;;;;;;;1.25;0.30;;;15.80;99.90;;;;;;4994493;28;20456;-35
2023/10/21 01:53:50;;;;;;;1.55;0.50;;;15.80;99.90;;;;;;4994262;28;20065;-35
2023/10/21 01:56:15;;;;;;;2.17;0.43;;;15.80;99.90;;;;;;4994331;28;20049;-37
2023/10/21 01:58:42;;;;;;;0.82;0.20;;;15.80;99.90;;;;;;4994328;28;20106;-35
2023/10/21 02:01:11;;;;;;;0.70;0.40;;;15.80;99.90;;;;;;4994275;28;20018;-35
2023/10/21 02:03:37;;;;;;;0.65;0.20;;;15.80;99.90;;;;;;4994127;28;20034;-41
2023/10/21 02:06:06;;;;;;;0.28;0.20;;;15.80;99.90;;;;;;4994006;28;20022;-39
2023/10/21 02:08:32;;;;;;;0.45;0.32;;;15.80;99.90;;;;;;4994069;28;20496;-35
2023/10/21 02:10:58;;;;;;;0.30;0.25;;;15.80;99.90;;;;;;4994046;28;20069;-35
2023/10/21 02:13:23;;;;;;;2.03;0.43;;;15.80;99.90;;;;;;4994137;28;20415;-35
2023/10/21 02:15:50;;;;;;;2.63;0.50;;;15.80;99.90;;;;;;4993760;28;20030;-38
2023/10/21 02:18:17;;;;;;;0.65;0.30;;;15.80;99.90;;;;;;4993936;28;20030;-35
2023/10/21 02:20:43;;;;;;;1.92;0.35;;;15.80;99.90;;;;;;4993922;28;20396;-35
2023/10/21 02:23:09;;;;;;;1.67;0.40;;;15.80;99.90;;;;;;4993724;28;20026;-38
2023/10/21 02:25:35;;;;;;;4.50;0.40;;;15.80;99.90;;;;;;4993676;28;20073;-39
2023/10/21 02:28:01;;;;;;;0.73;0.20;;;15.80;99.90;;;;;;4993682;28;20037;-35
2023/10/21 02:30:27;;;;;;;0.80;0.30;;;15.80;99.90;;;;;;4993710;28;20026;-39
2023/10/21 02:32:53;;;;;;;2.08;0.30;;;15.80;99.90;;;;;;4993605;28;20101;-35
2023/10/21 02:35:19;;;;;;;0.35;0.25;;;15.80;99.90;;;;;;4993427;28;20192;-35
2023/10/21 02:37:45;;;;;;;2.58;0.30;;;15.80;99.90;;;;;;4992409;28;20045;-35
2023/10/21 02:40:15;;;;;;;0.98;0.30;;;15.80;99.90;;;;;;4993581;28;20022;-35
2023/10/21 02:42:41;;;;;;;0.30;0.20;;;15.80;99.90;;;;;;4993368;28;20030;-35
2023/10/21 02:45:08;;;;;;;0.32;0.20;;;15.80;99.90;;;;;;4993407;28;20034;-35
2023/10/21 02:47:34;;;;;;;2.25;0.35;;;15.80;99.90;;;;;;4993641;28;20451;-35
2023/10/21 02:50:00;;;;;;;2.35;0.38;;;15.80;99.90;;;;;;4993328;28;20066;-38
2023/10/21 02:52:25;;;;;;;1.80;0.38;;;15.80;99.90;;;;;;4993323;28;20065;-35
2023/10/21 02:54:51;;;;;;;1.20;0.30;;;15.80;99.90;;;;;;4991705;28;20118;-38
2023/10/21 02:57:16;;;;;;;0.65;0.20;;;15.80;99.90;;;;;;4993145;28;20026;-38
2023/10/21 02:59:42;;;;;;;0.47;0.30;;;15.80;99.90;;;;;;4991920;28;20022;-38
2023/10/21 03:02:08;;;;;;;2.10;0.30;;;15.80;99.90;;;;;;4993060;28;20022;-37
2023/10/21 03:04:35;;;;;;;0.82;0.47;;;15.80;99.90;;;;;;4992978;28;20037;-38
2023/10/21 03:07:01;;;;;;;1.25;0.20;;;15.80;99.90;;;;;;4992892;28;20502;-37
2023/10/21 03:09:27;;;;;;;0.35;0.20;;;15.80;99.90;;;;;;4991804;28;20034;-38
2023/10/21 03:11:53;;;;;;;0.60;0.30;;;15.80;99.90;;;;;;4991616;28;20032;-38
2023/10/21 03:14:18;;;;;;;0.95;0.40;;;15.80;99.90;;;;;;4992775;28;20030;-38
2023/10/21 03:16:44;;;;;;;0.40;0.30;;;15.80;99.90;;;;;;4992591;28;20029;-39
2023/10/21 03:19:10;;;;;;;0.60;0.28;;;15.80;99.90;;;;;;4992793;28;20122;-37
2023/10/21 03:21:35;;;;;;;1.08;0.35;;;15.80;99.90;;;;;;4992817;28;20511;-38
2023/10/21 03:24:01;;;;;;;0.73;0.32;;;15.80;99.90;;;;;;4992681;28;20156;-38
2023/10/21 03:26:27;;;;;;;0.30;0.30;;;15.80;99.90;;;;;;4992526;28;20026;-37
2023/10/21 03:28:52;;;;;;;0.63;0.40;;;15.80;99.90;;;;;;4992696;28;20491;-37
2023/10/21 03:31:19;;;;;;;0.38;0.20;;;15.70;99.90;;;;;;4992622;28;20542;-38
2023/10/21 03:33:45;;;;;;;0.32;0.20;;;15.80;99.90;;;;;;4992391;28;20038;-38
2023/10/21 03:36:11;;;;;;;0.50;0.20;;;15.80;99.90;;;;;;4992212;28;20369;-38
2023/10/21 03:38:37;;;;;;;0.30;0.20;;;15.80;99.90;;;;;;4992404;28;20109;-38
2023/10/21 03:41:05;;;;;;;0.40;0.30;;;15.80;99.90;;;;;;4992434;28;20014;-38
2023/10/21 03:43:31;;;;;;;0.35;0.20;;;15.80;99.90;;;;;;4992238;28;20030;-37
2023/10/21 03:46:01;;;;;;;0.30;0.20;;;15.80;99.90;;;;;;4992287;28;20033;-37
2023/10/21 03:48:26;;;;;;;0.88;0.30;;;15.80;99.90;;;;;;4991936;28;20049;-38
2023/10/21 03:50:52;;;;;;;0.80;0.20;;;15.80;99.90;;;;;;4992255;28;20026;-38
2023/10/21 03:53:18;;;;;;;2.00;0.22;;;15.80;99.90;;;;;;4992296;28;20076;-37
2023/10/21 03:55:44;;;;;;;0.10;0.10;;;15.80;99.90;;;;;;4992102;28;20384;-38
2023/10/21 03:58:10;;;;;;;0.28;0.20;;;15.80;99.90;;;;;;4992074;28;20027;-38
2023/10/21 04:00:39;;;;;;;2.05;0.20;;;15.80;99.90;;;;;;4992286;28;20077;-37
2023/10/21 04:03:07;;;;;;;1.98;0.32;;;15.80;99.90;;;;;;4991978;28;20030;-37
2023/10/21 04:05:33;;;;;;;0.35;0.20;;;15.80;99.90;;;;;;4992029;28;20046;-37
2023/10/21 04:07:59;;;;;;;1.92;0.30;;;15.80;99.90;;;;;;4992242;28;20053;-37
2023/10/21 04:10:25;;;;;;;0.47;0.30;;;15.80;99.90;;;;;;4992151;28;20026;-38
2023/10/21 04:12:50;;;;;;;0.93;0.20;;;15.70;99.90;;;;;;4991980;28;20109;-38
2023/10/21 04:15:16;;;;;;;2.10;0.10;;;15.70;99.90;;;;;;4991835;28;20495;-38
2023/10/21 04:17:45;;;;;;;0.15;0.10;;;15.70;99.90;;;;;;4991772;28;20101;-39
2023/10/21 04:20:17;;;;;;;0.30;0.20;;;15.80;99.90;;;;;;4991983;28;20357;-38
2023/10/21 04:22:43;;;;;;;0.15;0.10;;;15.70;99.90;;;;;;4991861;28;20468;-37
2023/10/21 04:25:10;;;;;;;1.92;0.30;;;15.80;99.90;;;;;;4991782;28;20102;-37
2023/10/21 04:27:36;;;;;;;1.02;0.30;;;15.80;99.90;;;;;;4991809;28;20030;-37
2023/10/21 04:30:06;;;;;;;1.38;0.20;;;15.70;99.90;;;;;;4991820;28;20026;-38
2023/10/21 04:32:31;;;;;;;1.58;0.20;;;15.80;99.90;;;;;;4991773;28;20030;-37
2023/10/21 04:34:59;;;;;;;0.82;0.28;;;15.70;99.90;;;;;;4991613;28;20026;-38
2023/10/21 04:37:25;;;;;;;0.45;0.20;;;15.80;99.90;;;;;;4991654;28;20027;-38
2023/10/21 04:39:51;;;;;;;1.20;0.30;;;15.80;99.90;;;;;;4991812;28;20019;-38
2023/10/21 04:42:17;;;;;;;0.40;0.20;;;15.80;99.90;;;;;;4991567;28;20089;-38
2023/10/21 04:44:43;;;;;;;0.50;0.20;;;15.70;99.90;;;;;;4991602;28;20526;-37
2023/10/21 04:47:09;;;;;;;1.00;0.28;;;15.70;99.90;;;;;;4991648;28;20514;-38
2023/10/21 04:49:35;;;;;;;2.92;0.40;;;15.70;99.90;;;;;;4991746;28;20105;-37
2023/10/21 04:52:00;;;;;;;0.40;0.20;;;15.70;99.90;;;;;;4991637;28;20396;-37
2023/10/21 04:54:26;;;;;;;0.50;0.15;;;15.70;99.90;;;;;;4991727;28;20058;-38
2023/10/21 04:56:53;;;;;;;0.30;0.10;;;15.70;99.90;;;;;;4991459;28;20057;-37
2023/10/21 04:59:18;;;;;;;0.20;0.20;;;15.70;99.90;;;;;;4991516;28;20537;-40
2023/10/21 05:01:44;;;;;;;0.52;0.20;;;15.70;99.90;;;;;;4994800;28;20106;-40
2023/10/21 05:04:10;;;;;;;0.22;0.10;;;15.70;99.90;;;;;;4995628;28;20053;-40
2023/10/21 05:06:36;;;;;;;0.20;0.17;;;15.70;99.90;;;;;;4995082;28;20030;-40
2023/10/21 05:09:03;;;;;;;0.55;0.15;;;15.70;99.90;;;;;;4995279;28;20026;-40
2023/10/21 05:11:28;;;;;;;0.25;0.20;;;15.70;99.90;;;;;;4995204;28;20030;-40
2023/10/21 05:13:54;;;;;;;0.57;0.20;;;15.70;99.90;;;;;;4994928;28;20053;-40
2023/10/21 05:16:20;;;;;;;0.77;0.13;;;15.70;99.90;;;;;;4994826;28;20519;-40
2023/10/21 05:18:45;;;;;;;0.20;0.20;;;15.70;99.90;;;;;;4995124;28;20109;-37
2023/10/21 05:21:11;;;;;;;0.28;0.17;;;15.70;99.90;;;;;;4995015;28;20038;-38
2023/10/21 05:23:36;;;;;;;0.20;0.10;;;15.70;99.90;;;;;;4994929;28;20026;-38
2023/10/21 05:26:02;;;;;;;0.95;0.30;;;15.70;99.90;;;;;;4994734;28;20030;-37
2023/10/21 05:28:28;;;;;;;0.52;0.22;;;15.70;99.90;;;;;;4994824;28;20026;-38
2023/10/21 05:30:54;;;;;;;0.40;0.20;;;15.70;99.90;;;;;;4994816;28;20033;-37
2023/10/21 05:33:19;;;;;;;0.88;0.17;;;15.70;99.90;;;;;;4994817;28;20057;-37
2023/10/21 05:35:45;;;;;;;0.30;0.20;;;15.70;99.90;;;;;;4994510;28;20070;-37
2023/10/21 05:38:11;;;;;;;0.30;0.20;;;15.70;99.90;;;;;;4994810;28;20033;-40
2023/10/21 05:40:37;;;;;;;0.38;0.10;;;15.70;99.90;;;;;;4994668;28;20403;-38
2023/10/21 05:43:03;;;;;;;0.13;0.10;;;15.70;99.90;;;;;;4994432;28;20515;-38
2023/10/21 05:45:29;;;;;;;0.55;0.20;;;15.70;99.90;;;;;;4994473;28;20027;-38
2023/10/21 05:47:55;;;;;;;3.55;0.32;;;15.70;99.90;;;;;;4994659;28;20029;-38
2023/10/21 05:50:23;;;;;;;4.13;0.38;;;15.70;99.90;;;;;;4994462;28;20023;-37
2023/10/21 05:52:48;;;;;;;1.23;0.30;;;15.70;99.90;;;;;;4994270;28;20088;-38
2023/10/21 05:55:14;;;;;;;3.15;0.30;;;15.70;99.90;;;;;;4992907;28;20121;-38
2023/10/21 05:57:40;;;;;;;0.40;0.20;;;15.70;99.90;;;;;;4994146;28;20101;-37
2023/10/21 06:00:07;;;;;;;0.77;0.20;;;15.70;99.90;;;;;;4994356;28;20026;-38
2023/10/21 06:02:33;;;;;;;0.28;0.17;;;15.70;99.90;;;;;;4994213;28;20026;-38
2023/10/21 06:04:58;;;;;;;1.02;0.20;;;15.70;99.90;;;;;;4994089;28;20408;-37
2023/10/21 06:07:24;;;;;;;1.10;0.40;;;15.70;99.90;;;;;;4994573;28;20105;-39
2023/10/21 06:09:49;;;;;;;1.00;0.20;;;15.70;99.90;;;;;;4994212;28;20026;-37
2023/10/21 06:12:15;;;;;;;0.73;0.20;;;15.70;99.90;;;;;;4993670;28;20030;-38
2023/10/21 06:14:41;;;;;;;0.45;0.20;;;15.70;99.90;;;;;;4993974;28;20026;-37
2023/10/21 06:17:06;;;;;;;0.50;0.20;;;15.70;99.90;;;;;;4994008;28;20034;-38
2023/10/21 06:19:32;;;;;;;0.28;0.13;;;15.70;99.90;;;;;;4993940;28;20101;-37
2023/10/21 06:21:58;;;;;;;0.77;0.20;;;15.70;99.90;;;;;;4993916;28;20028;-39
2023/10/21 06:24:24;;;;;;;3.00;0.10;;;15.70;99.90;;;;;;4993869;28;20542;-38
2023/10/21 06:26:50;;;;;;;0.68;0.10;;;15.70;99.90;;;;;;4993813;28;20387;-37
2023/10/21 06:29:16;;;;;;;0.50;0.20;;;15.70;99.90;;;;;;4993798;28;20026;-37
2023/10/21 06:31:41;;;;;;;0.47;0.20;;;15.70;99.90;;;;;;4993661;28;20022;-38
2023/10/21 06:34:08;;;;;;;1.55;0.20;;;15.70;99.90;;;;;;4993535;28;20404;-38
2023/10/21 06:36:34;;;;;;;0.35;0.20;;;15.70;99.90;;;;;;4992056;28;20026;-37
2023/10/21 06:39:00;;;;;;;1.05;0.20;;;15.70;99.90;;;;;;4993514;28;20030;-38
2023/10/21 06:41:26;;;;;;;1.27;0.20;;;15.70;99.90;;;;;;4993423;28;20015;-37
2023/10/21 06:43:51;;;;;;;0.70;0.25;;;15.70;99.90;;;;;;4993391;28;20038;-38
2023/10/21 06:46:17;;;;;;;0.20;0.15;;;15.70;99.90;;;;;;4993360;28;20105;-38
2023/10/21 06:48:43;;;;;;;0.20;0.10;;;15.70;99.90;;;;;;4993452;28;20045;-38
2023/10/21 06:51:09;;;;;;;0.75;0.17;;;15.70;99.90;;;;;;4993328;28;20026;-37
2023/10/21 06:53:34;;;;;;;0.32;0.20;;;15.70;99.90;;;;;;4993320;28;20026;-38
2023/10/21 06:56:00;;;;;;;1.23;0.20;;;15.70;99.90;;;;;;4992912;28;20034;-37
2023/10/21 06:58:26;;;;;;;0.75;0.22;;;15.70;99.90;;;;;;4993226;28;20157;-39
2023/10/21 07:00:52;;;;;;;0.30;0.10;;;15.70;99.90;;;;;;4993190;28;20500;-38
2023/10/21 07:03:18;;;;;;;2.08;0.20;;;15.70;99.90;;;;;;4992998;28;20033;-38
2023/10/21 07:05:45;;;;;;;0.17;0.10;;;15.70;99.90;;;;;;4992983;28;20037;-38
2023/10/21 07:08:11;;;;;;;1.25;0.25;;;15.80;99.90;;;;;;4992986;28;20026;-38
2023/10/21 07:10:38;;;;;;;1.00;0.20;;;15.80;99.90;;;;;;4992812;28;20033;-38
2023/10/21 07:13:04;;;;;;;0.85;0.25;;;15.80;99.90;;;;;;4992878;28;20109;-38
2023/10/21 07:15:31;;;;;;;1.55;0.30;;;15.80;99.90;;;;;;4992740;28;20113;-37
2023/10/21 07:17:57;;;;;;;0.57;0.30;;;15.80;99.90;;;;;;4992729;28;20022;-38
2023/10/21 07:20:23;;;;;;;0.50;0.30;;;15.80;99.90;;;;;;4991578;28;20046;-38
2023/10/21 07:22:49;;;;;;;0.30;0.20;;;15.80;99.90;;;;;;4992276;28;20018;-38
2023/10/21 07:25:18;;;;;;;0.70;0.38;;;15.90;99.90;;;;;;4992488;28;20114;-37
2023/10/21 07:27:44;;;;;;;0.38;0.28;;;15.80;99.90;;;;;;4992666;28;20023;-37
2023/10/21 07:30:10;;;;;;;0.57;0.30;;;15.90;99.90;;;;;;4992678;28;20018;-38
2023/10/21 07:32:35;;;;;;;0.60;0.22;;;15.80;99.90;;;;;;4992519;28;20033;-38
2023/10/21 07:35:03;;;;;;;0.65;0.20;;;15.90;99.90;;;;;;4992392;28;20507;-38
2023/10/21 07:37:30;;;;;;;0.57;0.28;;;15.90;99.90;;;;;;4992348;28;20019;-38
2023/10/21 07:39:58;;;;;;;0.50;0.22;;;15.90;99.90;;;;;;4992448;28;20575;-37
2023/10/21 07:42:24;;;;;;;0.85;0.30;;;15.90;99.90;;;;;;4992810;28;20555;-37
2023/10/21 07:44:50;;;;;;;1.10;0.30;;;15.90;99.90;;;;;;4992323;28;20484;-38
2023/10/21 07:47:15;;;;;;;0.45;0.30;;;15.90;99.90;;;;;;4992260;28;20035;-38
2023/10/21 07:49:41;;;;;;;2.03;0.55;;;15.90;99.90;;;;;;4992313;28;20110;-37
2023/10/21 07:52:06;;;;;;;0.35;0.20;;;16.00;99.90;;;;;;4992077;28;20447;-37
2023/10/21 07:54:32;;;;;;;0.20;0.15;;;16.00;99.90;;;;;;4992216;28;20027;-37
2023/10/21 07:56:58;;;;;;;0.75;0.30;;;16.00;99.90;;;;;;4992199;28;20054;-37
2023/10/21 07:59:27;;;;;;;0.88;0.10;;;16.00;99.90;;;;;;4992221;28;20488;-38
2023/10/21 08:01:54;;;;;;;0.90;0.35;;;16.00;99.90;;;;;;4992152;28;20507;-37
2023/10/21 08:04:19;;;;;;;0.60;0.25;;;16.00;99.90;;;;;;4992162;28;20066;-38
2023/10/21 08:06:46;;;;;;;0.80;0.30;;;16.00;99.90;;;;;;4991857;28;20030;-37
2023/10/21 08:09:16;;;;;;;3.08;0.15;;;16.00;99.90;;;;;;4992069;28;20085;-38
2023/10/21 08:11:43;;;;;;;1.55;0.30;;;16.10;99.90;;;;;;4992053;28;20487;-38
2023/10/21 08:14:12;;;;;;;0.85;0.28;;;16.10;99.90;;;;;;4991948;28;20030;-37
2023/10/21 08:16:38;;;;;;;2.40;0.20;;;16.10;99.90;;;;;;4991717;28;20034;-37
2023/10/21 08:19:05;;;;;;;0.73;0.35;;;16.10;99.90;;;;;;4991946;28;20023;-37
2023/10/21 08:21:31;;;;;;;1.30;0.20;;;16.10;99.90;;;;;;4991887;28;20053;-38
2023/10/21 08:23:57;;;;;;;0.20;0.20;;;16.20;99.90;;;;;;4990631;28;20476;-37
2023/10/21 08:26:24;;;;;;;0.63;0.30;;;16.20;99.90;;;;;;4991897;28;20027;-37
2023/10/21 08:28:50;;;;;;;0.82;0.30;;;16.20;99.90;;;;;;4991909;28;20022;-37
2023/10/21 08:31:15;;;;;;;0.93;0.20;;;16.20;99.90;;;;;;4991883;28;20042;-37
2023/10/21 08:33:41;;;;;;;0.88;0.30;;;16.20;99.90;;;;;;4991787;28;20500;-37
2023/10/21 08:36:18;;;;;;;0.32;0.13;;;16.20;99.90;;;;;;4995077;28;20034;-37
2023/10/21 08:38:44;;;;;;;0.65;0.30;;;16.20;99.90;;;;;;4995867;28;20101;-37
2023/10/21 08:41:12;;;;;;;0.40;0.28;;;16.30;99.90;;;;;;4995771;28;20057;-37
2023/10/21 08:43:38;;;;;;;1.05;0.30;;;16.30;99.90;;;;;;4995570;28;20108;-37
2023/10/21 08:46:06;;;;;;;0.47;0.20;;;16.30;99.90;;;;;;4995440;28;20050;-37
2023/10/21 08:48:34;;;;;;;1.17;0.20;;;16.30;99.90;;;;;;4995578;28;20061;-37
2023/10/21 08:51:01;;;;;;;0.50;0.30;;;16.30;99.90;;;;;;4995604;28;20030;-37
2023/10/21 08:53:28;;;;;;;0.35;0.20;;;16.40;99.90;;;;;;4995620;28;20041;-37
2023/10/21 08:55:54;;;;;;;1.23;0.20;;;16.40;99.90;;;;;;4995674;28;20061;-37
2023/10/21 08:58:28;;;;;;;0.93;0.30;;;16.40;99.90;;;;;;4995393;28;20070;-37
2023/10/21 09:00:57;;;;;;;1.02;0.30;;;16.40;99.90;;;;;;4995302;28;20105;-38
2023/10/21 09:03:23;;;;;;;1.90;0.25;;;16.50;99.90;;;;;;4995357;28;20030;-37
2023/10/21 09:06:06;;;;;;;0.30;0.20;;;16.50;99.90;;;;;;4995790;28;20395;-37
2023/10/21 09:08:32;;;;;;;1.08;0.30;;;16.50;99.90;;;;;;4995379;28;20069;-38
2023/10/21 09:10:59;;;;;;;0.20;0.10;;;16.50;99.90;;;;;;4995259;28;20038;-38
2023/10/21 09:13:30;;;;;;;3.05;0.20;;;16.50;99.90;;;;;;4995024;28;20530;-38
2023/10/21 09:15:55;;;;;;;1.80;0.50;;;16.50;99.90;;;;;;4995009;28;20096;-37
2023/10/21 09:18:21;;;;;;;0.35;0.10;;;16.50;99.90;;;;;;4995017;28;20492;-37
2023/10/21 09:20:49;;;;;;;0.43;0.15;;;16.50;99.90;;;;;;4995160;28;20027;-39
2023/10/21 09:23:17;;;;;;;1.25;0.30;;;16.50;99.90;;;;;;4994979;28;20480;-37
2023/10/21 09:25:49;;;;;;;0.73;0.32;;;16.60;99.90;;;;;;4994859;28;20030;-37
2023/10/21 09:28:24;;;;;;;0.32;0.10;;;16.60;99.90;;;;;;4994899;28;20053;-36
2023/10/21 09:30:57;;;;;;;;;;;16.60;99.90;;;;;;4995284;28;20032;-37
2023/10/21 09:33:23;;;;;;;0.47;0.20;;;16.60;99.90;;;;;;4994809;28;20399;-37
2023/10/21 09:36:01;;;;;;;1.38;0.20;;;16.60;99.90;;;;;;4994626;28;20026;-37
2023/10/21 09:38:27;;;;;;;1.40;0.30;;;16.60;99.90;;;;;;4994679;28;20022;-37
2023/10/21 09:40:53;;;;;;;1.02;0.32;;;16.60;99.90;;;;;;4994843;28;20506;-37
2023/10/21 09:43:20;;;;;;;0.57;0.20;;;16.60;99.90;;;;;;4994505;28;20037;-38
2023/10/21 09:45:49;;;;;;;0.93;0.30;;;16.60;99.90;;;;;;4994212;28;20026;-37
2023/10/21 09:48:15;;;;;;;0.80;0.30;;;16.60;99.90;;;;;;4994286;28;20032;-37
2023/10/21 09:50:56;;;;;;;0.68;0.10;;;16.60;99.90;;;;;;4995000;28;20027;-37
2023/10/21 09:53:33;;;;;;;1.42;0.32;;;16.60;99.90;;;;;;4994610;28;20026;-37
2023/10/21 09:56:01;;;;;;;0.82;0.13;;;16.60;99.90;;;;;;4994233;28;20022;-38
2023/10/21 09:58:27;;;;;;;0.30;0.20;;;16.60;99.90;;;;;;4994517;28;20022;-37
2023/10/21 10:00:54;;;;;;;1.52;0.30;;;16.60;99.90;;;;;;4994264;28;20031;-38
2023/10/21 10:03:20;;;;;;;0.45;0.20;;;16.60;99.90;;;;;;4994153;28;20022;-37
2023/10/21 10:05:46;;;;;;;1.30;0.20;;;16.60;99.90;;;;;;4994264;28;20037;-38
2023/10/21 10:08:12;;;;;;;0.20;0.17;;;16.60;99.90;;;;;;4994137;28;20510;-37
2023/10/21 10:10:39;;;;;;;1.88;0.35;;;16.60;99.90;;;;;;4994158;28;20035;-37
2023/10/21 10:13:11;;;;;;;0.73;0.20;;;16.70;99.90;;;;;;4994473;28;20031;-37
2023/10/21 10:15:41;;;;;;;1.52;0.20;;;16.60;99.90;;;;;;4993970;28;20376;-37
2023/10/21 10:18:19;;;;;;;3.75;0.28;;;16.60;99.90;;;;;;4993821;28;20031;-38
2023/10/21 10:20:48;;;;;;;1.10;0.20;;;16.60;99.90;;;;;;4994168;28;20018;-37
2023/10/21 10:23:14;;;;;;;0.35;0.20;;;16.70;99.90;;;;;;4993846;28;20037;-37
2023/10/21 10:25:43;;;;;;;0.65;0.30;;;16.70;99.90;;;;;;4993767;28;20030;-37
2023/10/21 10:28:18;;;;;;;0.40;0.20;;;16.70;99.90;;;;;;4993731;28;20033;-38
2023/10/21 10:30:44;;;;;;;0.82;0.28;;;16.70;99.90;;;;;;4993834;28;20072;-38
2023/10/21 10:33:18;;;;;;;0.90;0.20;;;16.70;99.90;;;;;;4976268;28;20407;-37
2023/10/21 10:35:54;;;;;;;0.22;0.13;;;16.80;99.90;;;;;;4993889;28;20138;-37
2023/10/21 10:38:24;;;;;;;1.50;0.30;;;16.80;99.90;;;;;;4993709;28;20026;-38
2023/10/21 10:40:52;;;;;;;0.98;0.38;;;16.80;99.90;;;;;;4993913;28;20026;-37
2023/10/21 10:43:18;;;;;;;1.88;0.30;;;16.80;99.90;;;;;;4994064;28;20097;-37
2023/10/21 10:45:44;;;;;;;1.10;0.30;;;16.80;99.90;;;;;;4994625;28;20030;-37
2023/10/21 10:48:15;;;;;;;1.65;0.38;;;16.90;99.90;;;;;;4992633;28;20218;-38
2023/10/21 10:50:43;;;;;;;1.25;0.20;;;16.90;99.90;;;;;;4977511;28;20257;-37
2023/10/21 10:53:16;;;;;;;0.65;0.20;;;16.70;99.90;;;;;;4993496;28;20030;-37
2023/10/21 10:55:53;;;;;;;0.28;0.20;;;16.70;99.90;;;;;;4993273;28;20620;-39
2023/10/21 10:58:21;;;;;;;0.85;0.20;;;16.70;99.90;;;;;;4992943;28;20030;-37
2023/10/21 11:00:48;;;;;;;1.30;0.43;;;16.80;99.90;;;;;;4994525;28;20502;-37
2023/10/21 11:03:24;;;;;;;0.30;0.10;;;16.80;99.90;;;;;;4993801;28;20102;-37
2023/10/21 11:05:52;;;;;;;0.38;0.17;;;16.80;99.90;;;;;;4992931;28;20031;-38
2023/10/21 11:08:18;;;;;;;0.75;0.30;;;16.80;99.90;;;;;;4992970;28;20361;-37
2023/10/21 11:10:44;;;;;;;1.10;0.15;;;16.80;99.90;;;;;;4993235;28;20026;-37
2023/10/21 11:13:09;;;;;;;1.02;0.10;;;16.80;99.90;;;;;;4992854;28;20033;-37
2023/10/21 11:15:44;;;;;;;0.50;0.20;;;16.70;99.90;;;;;;4992699;28;20451;-37
2023/10/21 11:18:10;;;;;;;;;;;16.80;99.90;;;;;;4993292;28;20519;-38
2023/10/21 11:20:52;;;;;;;1.15;0.32;;;16.80;99.90;;;;;;4992731;28;19912;-37
2023/10/21 11:23:23;;;;;;;0.47;0.20;;;16.70;99.90;;;;;;4992832;28;20027;-37
2023/10/21 11:25:51;;;;;;;0.85;0.20;;;16.70;99.90;;;;;;4992912;28;20388;-38
2023/10/21 11:28:18;;;;;;;0.65;0.30;;;16.70;99.90;;;;;;4992647;28;20022;-37
2023/10/21 11:30:45;;;;;;;0.47;0.20;;;16.70;99.90;;;;;;4992598;28;20033;-37
2023/10/21 11:33:11;;;;;;;1.10;0.30;;;16.70;99.90;;;;;;4992520;28;20117;-37
2023/10/21 11:35:41;;;;;;;0.80;0.22;;;16.70;99.90;;;;;;4992505;28;20598;-37
2023/10/21 11:38:07;;;;;;;0.75;0.35;;;16.70;99.90;;;;;;4992483;28;20026;-37
2023/10/21 11:40:34;;;;;;;0.90;0.30;;;16.70;99.90;;;;;;4992486;28;20050;-39
2023/10/21 11:43:04;;;;;;;1.95;0.40;;;16.70;99.90;;;;;;4992194;28;20026;-39
2023/10/21 11:45:30;;;;;;;1.27;0.45;;;16.70;99.90;;;;;;4992232;28;20034;-37
2023/10/21 11:48:08;;;;;;;1.83;0.28;;;16.70;99.90;;;;;;4992321;28;20527;-38
2023/10/21 11:50:35;;;;;;;0.90;0.38;;;16.70;99.90;;;;;;4992402;28;20030;-37
2023/10/21 11:53:05;;;;;;;0.73;0.25;;;16.70;99.90;;;;;;4992282;28;20041;-37
2023/10/21 12:26:55;;;;;;;0.57;0.30;;;16.70;99.90;;;;;;4991861;28;20365;-39
2023/10/21 12:32:36;;;;;;;0.82;0.28;;;16.70;99.90;;;;;;4991924;28;20432;-35
2023/10/21 12:38:05;;;;;;;;;;;16.80;99.90;;;;;;4992171;28;20435;-35
2023/10/21 12:40:35;;;;;;;0.70;0.38;;;16.70;99.90;;;;;;4991597;28;20291;-38
2023/10/21 12:46:14;;;;;;;1.13;0.30;;;16.80;99.90;;;;;;4991691;28;20062;-36
2023/10/21 12:48:33;;;;;;;1.00;0.32;;;16.70;99.90;;;;;;4991614;28;20030;-36
2023/10/21 12:50:58;;;;;;;0.63;0.30;;;16.80;99.90;;;;;;4991998;28;20031;-35
2023/10/21 12:53:25;;;;;;;1.85;0.20;;;16.80;99.90;;;;;;4991503;28;20030;-35
2023/10/21 12:55:51;;;;;;;0.88;0.30;;;16.80;99.90;;;;;;4991463;28;20468;-34
2023/10/21 12:58:16;;;;;;;2.58;0.32;;;16.80;99.90;;;;;;4991552;28;20073;-35
2023/10/21 13:00:43;;;;;;;0.85;0.30;;;16.70;99.90;;;;;;4991807;28;20085;-35
2023/10/21 13:03:13;;;;;;;0.50;0.20;;;16.70;99.90;;;;;;4991583;28;20030;-35
2023/10/21 13:05:39;;;;;;;0.82;0.32;;;16.80;99.90;;;;;;4991518;28;20182;-35
2023/10/21 13:08:09;;;;;;;1.50;0.45;;;16.80;99.90;;;;;;4991528;28;20022;-35
2023/10/21 13:10:35;;;;;;;2.47;0.30;;;16.80;99.90;;;;;;4991542;28;20023;-35
2023/10/21 13:13:03;;;;;;;1.17;0.40;;;16.80;99.90;;;;;;4991306;28;20027;-35
2023/10/21 13:15:32;;;;;;;0.82;0.38;;;16.80;99.90;;;;;;4991514;28;20030;-34
2023/10/21 13:17:58;;;;;;;1.08;0.20;;;16.80;99.90;;;;;;4974517;28;20042;-35
2023/10/21 13:20:23;;;;;;;1.30;0.40;;;16.90;99.90;;;;;;4991620;28;20022;-34
2023/10/21 13:22:54;;;;;;;1.02;0.30;;;16.90;99.90;;;;;;4994117;28;20295;-35
2023/10/21 13:25:20;;;;;;;0.98;0.28;;;16.90;99.90;;;;;;4994859;28;20019;-35
2023/10/21 13:27:46;;;;;;;1.08;0.28;;;16.90;99.90;;;;;;4994928;28;20026;-35